createdAt,value
2023-04-20T00:00:45.378Z,73.57
2023-04-20T00:01:45.388Z,73.27
2023-04-20T00:02:45.475Z,73.36
2023-04-20T00:03:45.544Z,73.98
2023-04-20T00:04:45.330Z,73.47
2023-04-20T00:05:45.327Z,73.06
2023-04-20T00:06:45.384Z,73.88
2023-04-20T00:07:45.370Z,74.29
2023-04-20T00:08:45.296Z,73.98
2023-04-20T00:09:45.319Z,74.12
2023-04-20T00:10:45.338Z,73.91
2023-04-20T00:11:45.313Z,74.22
2023-04-20T00:12:45.266Z,73.95
2023-04-20T00:13:45.252Z,73.68
2023-04-20T00:14:45.261Z,74.02
2023-04-20T00:15:46.251Z,73.71
2023-04-20T00:16:45.290Z,73.91
2023-04-20T00:17:45.266Z,74.53
2023-04-20T00:18:45.284Z,73.98
2023-04-20T00:19:45.218Z,73.71
2023-04-20T00:20:45.226Z,72.58
2023-04-20T00:21:45.250Z,73.10
2023-04-20T00:22:45.214Z,72.38
2023-04-20T00:23:45.185Z,71.76
2023-04-20T00:24:45.232Z,72.24
2023-04-20T00:25:45.226Z,73.36
2023-04-20T00:26:45.237Z,73.95
2023-04-20T00:27:45.170Z,74.29
2023-04-20T00:28:45.206Z,73.85
2023-04-20T00:29:45.168Z,72.10
2023-04-20T00:30:45.251Z,71.86
2023-04-20T00:31:45.136Z,72.24
2023-04-20T00:32:45.209Z,72.24
2023-04-20T00:33:45.220Z,73.30
2023-04-20T00:34:45.133Z,73.91
2023-04-20T00:35:45.117Z,73.88
2023-04-20T00:36:45.127Z,72.55
2023-04-20T00:37:45.087Z,72.34
2023-04-20T00:38:45.098Z,74.02
2023-04-20T00:39:45.108Z,74.43
2023-04-20T00:40:45.071Z,73.95
2023-04-20T00:41:45.070Z,74.33
2023-04-20T00:42:45.133Z,74.33
2023-04-20T00:43:45.040Z,74.95
2023-04-20T00:44:45.069Z,75.67
2023-04-20T00:45:45.084Z,75.35
2023-04-20T00:46:45.443Z,75.35
2023-04-20T00:47:45.068Z,76.01
2023-04-20T00:48:45.047Z,75.87
2023-04-20T00:49:45.010Z,76.62
2023-04-20T00:50:45.066Z,77.07
2023-04-20T00:51:45.037Z,77.89
2023-04-20T00:52:45.116Z,78.96
2023-04-20T00:53:44.980Z,78.44
2023-04-20T00:54:45.021Z,79.95
2023-04-20T00:55:44.998Z,80.05
2023-04-20T00:56:44.984Z,79.91
2023-04-20T00:57:45.018Z,79.19
2023-04-20T00:58:44.997Z,78.54
2023-04-20T00:59:44.989Z,78.47
2023-04-20T01:00:44.984Z,78.82
2023-04-20T01:01:44.989Z,79.44
2023-04-20T01:02:45.077Z,80.16
2023-04-20T01:03:45.232Z,79.50
2023-04-20T01:04:44.942Z,79.33
2023-04-20T01:05:44.974Z,80.26
2023-04-20T01:06:44.961Z,79.85
2023-04-20T01:07:44.926Z,79.09
2023-04-20T01:08:44.963Z,78.47
2023-04-20T01:09:44.959Z,78.99
2023-04-20T01:10:44.965Z,78.64
2023-04-20T01:11:44.991Z,77.99
2023-04-20T01:12:44.968Z,78.09
2023-04-20T01:13:44.998Z,78.03
2023-04-20T01:14:44.873Z,78.58
2023-04-20T01:15:44.989Z,78.47
2023-04-20T01:16:45.038Z,79.30
2023-04-20T01:17:44.874Z,79.40
2023-04-20T01:18:44.923Z,79.36
2023-04-20T01:19:44.847Z,78.96
2023-04-20T01:20:44.822Z,79.50
2023-04-20T01:21:44.838Z,80.22
2023-04-20T01:22:44.932Z,80.22
2023-04-20T01:23:44.812Z,79.40
2023-04-20T01:24:45.019Z,79.54
2023-04-20T01:25:44.793Z,79.67
2023-04-20T01:26:44.808Z,79.12
2023-04-20T01:27:44.823Z,77.37
2023-04-20T01:28:44.775Z,78.03
2023-04-20T01:29:44.762Z,79.09
2023-04-20T01:30:44.818Z,79.30
2023-04-20T01:31:44.849Z,78.99
2023-04-20T01:32:44.884Z,79.05
2023-04-20T01:33:44.810Z,79.30
2023-04-20T01:34:44.822Z,79.75
2023-04-20T01:35:44.812Z,79.64
2023-04-20T01:36:44.800Z,79.75
2023-04-20T01:37:44.707Z,80.02
2023-04-20T01:38:44.737Z,79.64
2023-04-20T01:39:44.850Z,79.95
2023-04-20T01:40:44.785Z,80.57
2023-04-20T01:41:44.668Z,80.67
2023-04-20T01:42:44.682Z,80.16
2023-04-20T01:43:44.703Z,80.57
2023-04-20T01:44:44.655Z,80.26
2023-04-20T01:45:44.669Z,80.98
2023-04-20T01:46:44.703Z,80.57
2023-04-20T01:47:44.742Z,80.77
2023-04-20T01:48:44.659Z,80.22
2023-04-20T01:49:44.658Z,80.33
2023-04-20T01:50:44.652Z,80.33
2023-04-20T01:51:44.642Z,80.22
2023-04-20T01:52:44.629Z,80.05
2023-04-20T01:53:44.617Z,80.05
2023-04-20T01:54:44.614Z,80.77
2023-04-20T01:55:44.651Z,80.91
2023-04-20T01:56:44.620Z,81.63
2023-04-20T01:57:44.582Z,81.70
2023-04-20T01:58:44.613Z,82.05
2023-04-20T01:59:44.573Z,81.84
2023-04-20T02:00:44.644Z,81.84
2023-04-20T02:01:44.650Z,81.60
2023-04-20T02:02:44.772Z,80.91
2023-04-20T02:03:44.813Z,80.91
2023-04-20T02:04:44.592Z,81.23
2023-04-20T02:05:44.549Z,81.33
2023-04-20T02:06:44.555Z,81.43
2023-04-20T02:07:44.570Z,80.88
2023-04-20T02:08:44.510Z,80.74
2023-04-20T02:09:44.508Z,80.77
2023-04-20T02:10:44.527Z,80.88
2023-04-20T02:11:44.552Z,80.77
2023-04-20T02:12:44.485Z,80.74
2023-04-20T02:13:44.550Z,80.84
2023-04-20T02:14:44.473Z,80.12
2023-04-20T02:15:44.500Z,80.19
2023-04-20T02:16:44.545Z,79.47
2023-04-20T02:17:44.462Z,79.91
2023-04-20T02:18:44.469Z,80.43
2023-04-20T02:19:44.467Z,80.88
2023-04-20T02:20:44.423Z,81.29
2023-04-20T02:21:44.462Z,81.19
2023-04-20T02:22:44.441Z,81.91
2023-04-20T02:23:44.707Z,81.29
2023-04-20T02:24:44.434Z,82.01
2023-04-20T02:25:44.427Z,82.35
2023-04-20T02:26:44.418Z,81.70
2023-04-20T02:27:44.408Z,82.11
2023-04-20T02:28:44.422Z,80.88
2023-04-20T02:29:45.006Z,81.70
2023-04-20T02:30:44.403Z,82.83
2023-04-20T02:31:44.436Z,83.14
2023-04-20T02:32:44.452Z,82.32
2023-04-20T02:33:44.367Z,82.07
2023-04-20T02:34:44.369Z,82.53
2023-04-20T02:35:44.384Z,82.73
2023-04-20T02:36:44.373Z,82.93
2023-04-20T02:37:44.339Z,81.46
2023-04-20T02:40:53.367Z,81.91
2023-04-20T02:44:05.576Z,80.84
2023-04-20T02:47:19.870Z,82.67
2023-04-20T02:51:00.741Z,81.87
2023-04-20T02:54:22.617Z,81.95
2023-04-20T03:01:21.925Z,82.14
2023-04-20T03:02:23.301Z,82.14
2023-04-20T03:03:23.184Z,80.49
2023-04-20T03:04:23.086Z,80.33
2023-04-20T03:05:23.016Z,81.87
2023-04-20T03:06:22.972Z,81.81
2023-04-20T03:07:22.975Z,82.21
2023-04-20T03:08:22.911Z,82.21
2023-04-20T03:09:22.930Z,82.28
2023-04-20T03:10:22.893Z,82.04
2023-04-20T03:11:22.944Z,81.21
2023-04-20T03:12:22.912Z,80.46
2023-04-20T03:13:22.891Z,79.84
2023-04-20T03:14:22.866Z,80.49
2023-04-20T03:15:22.872Z,81.39
2023-04-20T03:16:22.889Z,83.39
2023-04-20T03:17:23.064Z,82.79
2023-04-20T03:18:22.872Z,81.56
2023-04-20T03:19:22.847Z,81.95
2023-04-20T03:20:22.863Z,82.93
2023-04-20T03:21:23.702Z,82.79
2023-04-20T03:22:22.851Z,81.76
2023-04-20T03:23:22.832Z,81.76
2023-04-20T03:24:22.805Z,81.76
2023-04-20T03:25:22.790Z,82.97
2023-04-20T03:26:22.800Z,83.65
2023-04-20T03:27:22.800Z,84.52
2023-04-20T03:28:22.837Z,83.97
2023-04-20T03:29:22.816Z,83.20
2023-04-20T03:30:22.760Z,83.20
2023-04-20T03:31:22.770Z,82.67
2023-04-20T03:32:22.824Z,84.11
2023-04-20T03:33:22.758Z,84.27
2023-04-20T03:34:22.779Z,83.62
2023-04-20T03:35:22.768Z,83.51
2023-04-20T03:36:22.761Z,83.59
2023-04-20T03:37:22.750Z,85.44
2023-04-20T03:38:22.792Z,85.30
2023-04-20T03:39:22.701Z,85.51
2023-04-20T03:40:22.734Z,85.71
2023-04-20T03:41:22.700Z,84.48
2023-04-20T03:42:22.708Z,85.51
2023-04-20T03:43:22.729Z,85.51
2023-04-20T03:44:22.704Z,85.03
2023-04-20T03:45:22.689Z,85.51
2023-04-20T03:46:23.485Z,84.38
2023-04-20T03:47:23.716Z,84.38
2023-04-20T03:48:22.706Z,84.48
2023-04-20T03:49:22.694Z,83.97
2023-04-20T03:50:22.674Z,84.07
2023-04-20T03:51:22.677Z,83.97
2023-04-20T03:52:22.684Z,84.17
2023-04-20T03:53:22.637Z,84.13
2023-04-20T03:54:22.635Z,84.03
2023-04-20T03:55:22.653Z,84.03
2023-04-20T03:56:22.610Z,84.17
2023-04-20T03:57:22.675Z,84.13
2023-04-20T03:58:22.637Z,83.83
2023-04-20T03:59:22.606Z,84.23
2023-04-20T04:00:22.702Z,84.34
2023-04-20T04:01:22.614Z,84.34
2023-04-20T04:02:22.921Z,85.68
2023-04-20T04:03:22.840Z,84.09
2023-04-20T04:04:22.885Z,84.75
2023-04-20T04:05:22.797Z,84.30
2023-04-20T04:06:22.551Z,83.86
2023-04-20T04:07:22.589Z,84.30
2023-04-20T04:08:22.560Z,83.17
2023-04-20T04:09:22.617Z,82.79
2023-04-20T04:10:22.521Z,83.70
2023-04-20T04:11:22.586Z,83.70
2023-04-20T04:12:22.533Z,83.55
2023-04-20T04:13:22.523Z,82.87
2023-04-20T04:14:22.500Z,83.45
2023-04-20T04:15:22.570Z,84.35
2023-04-20T04:16:22.508Z,84.25
2023-04-20T04:17:22.536Z,84.14
2023-04-20T04:18:22.515Z,84.11
2023-04-20T04:19:22.470Z,83.86
2023-04-20T04:20:22.460Z,82.32
2023-04-20T04:21:22.467Z,83.35
2023-04-20T04:22:22.496Z,82.97
2023-04-20T04:23:22.489Z,82.35
2023-04-20T04:24:22.462Z,82.35
2023-04-20T04:25:22.420Z,82.32
2023-04-20T04:26:23.048Z,81.91
2023-04-20T04:27:22.428Z,82.11
2023-04-20T04:28:22.384Z,81.53
2023-04-20T04:29:22.450Z,81.91
2023-04-20T04:30:22.435Z,82.28
2023-04-20T04:31:22.425Z,81.11
2023-04-20T04:32:22.392Z,80.12
2023-04-20T04:33:22.374Z,80.91
2023-04-20T04:34:22.347Z,79.88
2023-04-20T04:35:22.660Z,80.33
2023-04-20T04:36:22.336Z,81.19
2023-04-20T04:37:22.371Z,81.81
2023-04-20T04:38:22.390Z,81.87
2023-04-20T04:39:22.377Z,80.84
2023-04-20T04:40:22.374Z,81.39
2023-04-20T04:41:22.354Z,81.60
2023-04-20T04:42:22.336Z,81.91
2023-04-20T04:43:22.305Z,82.07
2023-04-20T04:44:22.311Z,80.80
2023-04-20T04:45:22.328Z,80.22
2023-04-20T04:46:22.321Z,80.91
2023-04-20T04:47:22.482Z,80.66
2023-04-20T04:48:22.320Z,78.92
2023-04-20T04:49:22.267Z,78.54
2023-04-20T04:50:22.283Z,78.75
2023-04-20T04:51:22.292Z,79.94
2023-04-20T04:52:22.302Z,79.53
2023-04-20T04:53:22.241Z,79.39
2023-04-20T04:54:22.256Z,79.02
2023-04-20T04:55:22.257Z,79.43
2023-04-20T04:56:22.219Z,79.98
2023-04-20T04:57:22.244Z,80.35
2023-04-20T04:58:22.213Z,80.15
2023-04-20T04:59:22.245Z,79.84
2023-04-20T05:00:22.248Z,79.94
2023-04-20T05:01:22.302Z,80.32
2023-04-20T05:02:22.424Z,79.43
2023-04-20T05:03:22.374Z,79.33
2023-04-20T05:04:22.270Z,79.88
2023-04-20T05:05:22.217Z,80.15
2023-04-20T05:06:22.191Z,79.94
2023-04-20T05:07:22.194Z,80.56
2023-04-20T05:08:22.161Z,80.93
2023-04-20T05:09:22.165Z,80.35
2023-04-20T05:10:22.198Z,79.29
2023-04-20T05:11:22.135Z,79.19
2023-04-20T05:12:22.215Z,79.60
2023-04-20T05:13:22.177Z,79.33
2023-04-20T05:14:22.154Z,80.46
2023-04-20T05:15:22.145Z,80.15
2023-04-20T05:16:22.160Z,80.80
2023-04-20T05:17:25.238Z,81.42
2023-04-20T05:18:22.130Z,81.52
2023-04-20T05:19:22.107Z,81.11
2023-04-20T05:20:22.116Z,81.73
2023-04-20T05:21:22.152Z,81.67
2023-04-20T05:22:22.076Z,82.45
2023-04-20T05:23:22.072Z,81.42
2023-04-20T05:24:22.070Z,82.18
2023-04-20T05:25:22.121Z,82.86
2023-04-20T05:26:22.060Z,82.41
2023-04-20T05:27:22.053Z,81.11
2023-04-20T05:28:22.054Z,81.79
2023-04-20T05:29:22.089Z,81.32
2023-04-20T05:30:22.307Z,82.04
2023-04-20T05:31:22.054Z,81.32
2023-04-20T05:32:22.097Z,80.91
2023-04-20T05:33:22.066Z,80.39
2023-04-20T05:34:22.027Z,80.87
2023-04-20T05:35:22.011Z,80.66
2023-04-20T05:36:22.024Z,80.70
2023-04-20T05:37:21.973Z,80.80
2023-04-20T05:38:21.950Z,81.21
2023-04-20T05:39:21.971Z,82.10
2023-04-20T05:40:21.965Z,82.10
2023-04-20T05:41:21.994Z,80.83
2023-04-20T05:42:21.978Z,80.35
2023-04-20T05:43:21.966Z,80.77
2023-04-20T05:44:21.925Z,80.39
2023-04-20T05:45:21.969Z,80.97
2023-04-20T05:46:21.969Z,81.34
2023-04-20T05:47:21.936Z,80.63
2023-04-20T05:48:21.911Z,80.08
2023-04-20T05:49:21.914Z,80.49
2023-04-20T05:50:21.937Z,80.39
2023-04-20T05:51:21.931Z,80.19
2023-04-20T05:52:21.905Z,79.50
2023-04-20T05:53:21.885Z,80.43
2023-04-20T05:54:21.878Z,82.04
2023-04-20T05:55:22.834Z,81.21
2023-04-20T05:56:22.883Z,80.49
2023-04-20T05:57:21.892Z,80.77
2023-04-20T05:58:21.898Z,80.49
2023-04-20T05:59:22.619Z,81.01
2023-04-20T06:00:24.445Z,80.70
2023-04-20T06:01:21.865Z,81.11
2023-04-20T06:02:22.005Z,81.21
2023-04-20T06:03:22.090Z,81.21
2023-04-20T06:04:22.059Z,80.70
2023-04-20T06:05:21.949Z,80.39
2023-04-20T06:06:21.807Z,81.62
2023-04-20T06:07:21.833Z,81.62
2023-04-20T06:08:21.828Z,82.14
2023-04-20T06:09:21.800Z,82.00
2023-04-20T06:10:21.802Z,80.87
2023-04-20T06:11:21.840Z,80.46
2023-04-20T06:12:21.775Z,80.15
2023-04-20T06:13:21.786Z,79.84
2023-04-20T06:14:22.595Z,80.11
2023-04-20T06:15:21.790Z,80.01
2023-04-20T06:16:21.801Z,80.01
2023-04-20T06:17:21.758Z,79.66
2023-04-20T06:18:21.721Z,79.32
2023-04-20T06:19:21.810Z,78.43
2023-04-20T06:20:21.733Z,79.02
2023-04-20T06:21:21.732Z,80.25
2023-04-20T06:22:21.720Z,79.33
2023-04-20T06:23:21.723Z,79.05
2023-04-20T06:24:21.824Z,79.43
2023-04-20T06:25:21.719Z,80.01
2023-04-20T06:26:21.744Z,78.78
2023-04-20T06:27:21.701Z,78.88
2023-04-20T06:28:21.692Z,78.36
2023-04-20T06:29:21.681Z,78.94
2023-04-20T06:30:21.684Z,79.47
2023-04-20T06:31:21.698Z,80.53
2023-04-20T06:32:21.719Z,80.97
2023-04-20T06:33:21.647Z,79.98
2023-04-20T06:34:21.639Z,80.66
2023-04-20T06:35:21.741Z,80.63
2023-04-20T06:36:21.623Z,79.22
2023-04-20T06:37:21.630Z,78.44
2023-04-20T06:38:21.649Z,80.19
2023-04-20T06:39:21.660Z,80.08
2023-04-20T06:40:21.618Z,80.49
2023-04-20T06:41:21.599Z,80.05
2023-04-20T06:42:21.634Z,79.80
2023-04-20T06:43:21.594Z,78.40
2023-04-20T06:44:21.560Z,78.53
2023-04-20T06:45:21.576Z,78.12
2023-04-20T06:46:21.611Z,77.78
2023-04-20T06:47:21.630Z,77.47
2023-04-20T06:48:31.367Z,77.58
2023-04-20T06:49:23.558Z,77.00
2023-04-20T06:50:21.562Z,77.40
2023-04-20T06:51:21.559Z,77.34
2023-04-20T06:52:21.597Z,78.78
2023-04-20T06:53:21.597Z,78.94
2023-04-20T06:54:21.528Z,78.57
2023-04-20T06:55:21.514Z,76.93
2023-04-20T06:56:21.572Z,77.95
2023-04-20T06:57:21.566Z,78.57
2023-04-20T06:58:21.550Z,77.00
2023-04-20T06:59:21.488Z,77.10
2023-04-20T07:00:21.504Z,77.98
2023-04-20T07:01:21.537Z,77.65
2023-04-20T07:02:21.602Z,77.34
2023-04-20T07:03:21.643Z,78.98
2023-04-20T07:04:21.575Z,78.67
2023-04-20T07:05:21.467Z,78.88
2023-04-20T07:06:21.503Z,78.98
2023-04-20T07:07:21.459Z,78.33
2023-04-20T07:08:21.455Z,76.72
2023-04-20T07:09:21.475Z,77.65
2023-04-20T07:10:21.448Z,76.38
2023-04-20T07:11:21.506Z,76.28
2023-04-20T07:12:21.437Z,77.61
2023-04-20T07:13:21.412Z,76.14
2023-04-20T07:14:21.400Z,78.16
2023-04-20T07:15:22.159Z,77.55
2023-04-20T07:16:21.395Z,76.93
2023-04-20T07:17:21.398Z,77.40
2023-04-20T07:18:21.367Z,76.42
2023-04-20T07:19:21.369Z,76.69
2023-04-20T07:20:21.400Z,77.06
2023-04-20T07:21:21.409Z,76.82
2023-04-20T07:22:21.355Z,77.06
2023-04-20T07:23:22.108Z,77.06
2023-04-20T07:24:21.418Z,77.62
2023-04-20T07:25:21.437Z,78.44
2023-04-20T07:26:21.343Z,77.85
2023-04-20T07:27:58.384Z,76.42
2023-04-20T07:28:21.386Z,76.51
2023-04-20T07:29:57.107Z,76.79
2023-04-20T07:30:56.364Z,76.97
2023-04-20T07:31:53.839Z,75.52
2023-04-20T07:32:55.180Z,76.42
2023-04-20T07:33:53.763Z,75.97
2023-04-20T07:36:22.698Z,75.73
2023-04-20T07:37:59.748Z,74.98
2023-04-20T07:38:23.745Z,75.24
2023-04-20T07:39:23.720Z,74.02
2023-04-20T07:40:23.695Z,73.85
2023-04-20T07:41:59.747Z,73.54
2023-04-20T07:42:23.863Z,73.50
2023-04-20T07:43:23.830Z,73.50
2023-04-20T07:44:23.686Z,73.81
2023-04-20T07:45:23.793Z,73.57
2023-04-20T07:46:23.934Z,73.50
2023-04-20T07:47:23.869Z,72.41
2023-04-20T07:48:24.262Z,74.05
2023-04-20T07:49:24.959Z,73.74
2023-04-20T07:50:23.649Z,74.02
2023-04-20T07:51:23.583Z,73.16
2023-04-20T07:52:23.647Z,72.31
2023-04-20T07:53:23.753Z,72.11
2023-04-20T07:54:23.545Z,71.62
2023-04-20T07:55:23.575Z,70.47
2023-04-20T07:56:23.711Z,69.28
2023-04-20T07:57:23.698Z,69.15
2023-04-20T07:58:23.584Z,67.65
2023-04-20T07:59:23.551Z,66.18
2023-04-20T08:00:23.638Z,67.75
2023-04-20T08:01:23.555Z,68.57
2023-04-20T08:02:23.741Z,69.79
2023-04-20T08:03:23.623Z,70.33
2023-04-20T08:04:23.925Z,71.25
2023-04-20T08:05:23.794Z,72.07
2023-04-20T08:06:23.728Z,72.38
2023-04-20T08:07:23.529Z,69.92
2023-04-20T08:08:23.452Z,71.01
2023-04-20T08:09:23.517Z,70.16
2023-04-20T08:10:23.570Z,69.85
2023-04-20T08:11:23.484Z,69.79
2023-04-20T08:12:23.521Z,69.38
2023-04-20T08:13:23.517Z,70.09
2023-04-20T08:14:23.471Z,70.16
2023-04-20T08:15:23.427Z,69.24
2023-04-20T08:16:24.085Z,69.01
2023-04-20T08:17:23.457Z,68.19
2023-04-20T08:18:24.269Z,68.22
2023-04-20T08:19:23.492Z,70.33
2023-04-20T08:20:23.373Z,69.79
2023-04-20T08:21:25.414Z,70.81
2023-04-20T08:22:24.365Z,70.81
2023-04-20T08:23:23.433Z,70.61
2023-04-20T08:24:23.362Z,69.99
2023-04-20T08:25:25.250Z,70.81
2023-04-20T08:26:23.389Z,70.61
2023-04-20T08:27:23.457Z,70.91
2023-04-20T08:28:33.318Z,71.49
2023-04-20T08:29:25.413Z,71.08
2023-04-20T08:30:23.403Z,70.67
2023-04-20T08:31:23.773Z,71.11
2023-04-20T08:32:23.336Z,71.18
2023-04-20T08:33:23.292Z,70.87
2023-04-20T08:34:23.301Z,71.18
2023-04-20T08:35:23.415Z,70.91
2023-04-20T08:36:23.347Z,70.70
2023-04-20T08:37:23.323Z,71.18
2023-04-20T08:38:32.931Z,71.80
2023-04-20T08:39:25.311Z,72.65
2023-04-20T08:40:23.299Z,73.27
2023-04-20T08:41:23.349Z,73.71
2023-04-20T08:42:23.276Z,73.54
2023-04-20T08:43:23.275Z,73.30
2023-04-20T08:44:23.480Z,73.91
2023-04-20T08:45:23.468Z,73.30
2023-04-20T08:46:23.330Z,73.33
2023-04-20T08:47:23.246Z,73.30
2023-04-20T08:48:23.217Z,72.92
2023-04-20T08:49:23.207Z,73.02
2023-04-20T08:50:23.500Z,73.33
2023-04-20T08:51:23.244Z,73.54
2023-04-20T08:52:23.200Z,73.64
2023-04-20T08:53:23.162Z,73.33
2023-04-20T08:54:24.739Z,73.19
2023-04-20T08:55:24.257Z,73.33
2023-04-20T08:56:23.951Z,73.44
2023-04-20T08:57:23.992Z,73.85
2023-04-20T08:58:23.450Z,72.10
2023-04-20T08:59:23.415Z,73.10
2023-04-20T09:00:23.498Z,72.17
2023-04-20T09:01:34.312Z,72.82
2023-04-20T09:02:25.136Z,74.02
2023-04-20T09:03:58.488Z,73.98
2023-04-20T09:04:23.519Z,72.14
2023-04-20T09:05:23.322Z,72.38
2023-04-20T09:06:23.467Z,72.48
2023-04-20T09:07:24.134Z,72.17
2023-04-20T09:08:23.112Z,72.07
2023-04-20T09:09:23.306Z,72.82
2023-04-20T09:10:23.874Z,72.27
2023-04-20T09:11:23.185Z,72.27
2023-04-20T09:12:23.114Z,72.24
2023-04-20T09:13:23.059Z,71.69
2023-04-20T09:14:23.093Z,71.83
2023-04-20T09:15:23.208Z,71.62
2023-04-20T09:16:23.819Z,70.91
2023-04-20T09:17:23.117Z,71.22
2023-04-20T09:18:23.076Z,70.74
2023-04-20T09:19:23.046Z,70.12
2023-04-20T09:20:23.053Z,69.99
2023-04-20T09:21:23.018Z,69.27
2023-04-20T09:22:23.048Z,69.65
2023-04-20T09:23:23.043Z,69.41
2023-04-20T09:24:23.018Z,69.75
2023-04-20T09:25:22.976Z,69.27
2023-04-20T09:26:23.044Z,69.68
2023-04-20T09:27:22.958Z,69.14
2023-04-20T09:28:22.996Z,69.14
2023-04-20T09:29:22.967Z,68.25
2023-04-20T09:30:22.986Z,68.69
2023-04-20T09:31:23.001Z,69.10
2023-04-20T09:32:23.103Z,69.38
2023-04-20T09:33:23.558Z,69.68
2023-04-20T09:34:22.987Z,68.69
2023-04-20T09:35:22.924Z,69.10
2023-04-20T09:36:22.976Z,69.17
2023-04-20T09:37:22.935Z,68.97
2023-04-20T09:38:22.922Z,68.59
2023-04-20T09:39:22.925Z,69.10
2023-04-20T09:40:22.940Z,68.59
2023-04-20T09:41:22.907Z,68.66
2023-04-20T09:42:22.923Z,68.76
2023-04-20T09:43:22.919Z,68.97
2023-04-20T09:44:22.903Z,68.66
2023-04-20T09:45:22.915Z,68.15
2023-04-20T09:46:22.993Z,67.74
2023-04-20T09:47:22.940Z,68.05
2023-04-20T09:48:22.853Z,68.32
2023-04-20T09:49:22.926Z,67.65
2023-04-20T09:50:29.183Z,65.95
2023-04-20T09:51:25.020Z,64.01
2023-04-20T09:52:22.872Z,62.52
2023-04-20T09:53:22.909Z,62.36
2023-04-20T09:54:22.858Z,59.81
2023-04-20T09:55:22.851Z,60.54
2023-04-20T09:56:22.821Z,59.39
2023-04-20T09:57:22.785Z,58.38
2023-04-20T09:58:22.998Z,57.43
2023-04-20T09:59:22.811Z,58.00
2023-04-20T10:00:22.788Z,58.00
2023-04-20T10:01:22.834Z,59.06
2023-04-20T10:02:22.932Z,57.03
2023-04-20T10:03:22.879Z,57.79
2023-04-20T10:04:24.230Z,59.23
2023-04-20T10:05:22.795Z,58.07
2023-04-20T10:06:22.817Z,55.27
2023-04-20T10:07:22.823Z,55.88
2023-04-20T10:08:22.746Z,57.67
2023-04-20T10:09:22.773Z,57.82
2023-04-20T10:10:22.727Z,57.75
2023-04-20T10:11:22.773Z,57.80
2023-04-20T10:12:22.840Z,59.64
2023-04-20T10:13:22.854Z,60.05
2023-04-20T10:14:22.719Z,60.14
2023-04-20T10:15:22.686Z,60.99
2023-04-20T10:16:22.751Z,60.55
2023-04-20T10:17:22.845Z,59.41
2023-04-20T10:18:23.821Z,59.00
2023-04-20T10:19:22.985Z,58.20
2023-04-20T10:20:22.664Z,56.95
2023-04-20T10:21:22.812Z,57.97
2023-04-20T10:22:22.644Z,55.99
2023-04-20T10:23:22.686Z,55.55
2023-04-20T10:24:22.894Z,55.32
2023-04-20T10:25:22.632Z,56.26
2023-04-20T10:26:22.664Z,55.04
2023-04-20T10:27:22.610Z,52.01
2023-04-20T10:28:22.688Z,52.28
2023-04-20T10:29:22.671Z,52.31
2023-04-20T10:30:22.600Z,54.00
2023-04-20T10:31:22.682Z,54.64
2023-04-20T10:32:22.755Z,54.61
2023-04-20T10:33:22.616Z,54.18
2023-04-20T10:34:22.607Z,52.96
2023-04-20T10:35:22.585Z,55.15
2023-04-20T10:36:22.570Z,55.86
2023-04-20T10:37:22.714Z,55.83
2023-04-20T10:38:22.559Z,55.53
2023-04-20T10:39:22.869Z,56.73
2023-04-20T10:40:22.556Z,55.83
2023-04-20T10:41:22.555Z,58.13
2023-04-20T10:42:22.534Z,57.92
2023-04-20T10:43:22.676Z,57.79
2023-04-20T10:44:22.573Z,58.30
2023-04-20T10:45:22.504Z,57.39
2023-04-20T10:46:22.520Z,56.90
2023-04-20T10:47:22.547Z,56.83
2023-04-20T10:48:22.503Z,57.95
2023-04-20T10:49:22.536Z,58.69
2023-04-20T10:50:22.518Z,59.03
2023-04-20T10:51:22.500Z,59.03
2023-04-20T10:52:22.501Z,60.55
2023-04-20T10:53:22.525Z,60.25
2023-04-20T10:54:22.470Z,61.02
2023-04-20T10:55:22.439Z,60.85
2023-04-20T10:56:22.443Z,60.41
2023-04-20T10:57:22.441Z,60.30
2023-04-20T10:58:22.446Z,60.30
2023-04-20T10:59:22.426Z,60.30
2023-04-20T11:00:22.447Z,60.76
2023-04-20T11:01:22.445Z,59.87
2023-04-20T11:02:22.638Z,59.94
2023-04-20T11:03:24.312Z,58.49
2023-04-20T11:04:22.473Z,57.87
2023-04-20T11:05:22.675Z,57.95
2023-04-20T11:06:22.378Z,56.73
2023-04-20T11:07:22.376Z,59.33
2023-04-20T11:08:22.410Z,58.62
2023-04-20T11:09:22.463Z,59.74
2023-04-20T11:10:22.378Z,59.64
2023-04-20T11:11:23.415Z,58.97
2023-04-20T11:12:22.346Z,57.95
2023-04-20T11:13:22.377Z,57.11
2023-04-20T11:14:22.375Z,56.70
2023-04-20T11:15:22.339Z,55.99
2023-04-20T11:16:22.480Z,55.73
2023-04-20T11:17:22.364Z,53.02
2023-04-20T11:18:22.380Z,50.97
2023-04-20T11:19:22.295Z,49.95
2023-04-20T11:20:22.287Z,52.25
2023-04-20T11:21:22.305Z,52.38
2023-04-20T11:22:22.280Z,52.30
2023-04-20T11:23:22.303Z,51.44
2023-04-20T11:24:22.307Z,53.24
2023-04-20T11:25:22.365Z,52.89
2023-04-20T11:26:22.259Z,54.44
2023-04-20T11:27:22.267Z,56.07
2023-04-20T11:28:27.069Z,52.61
2023-04-20T11:29:22.910Z,53.02
2023-04-20T11:30:22.235Z,52.66
2023-04-20T11:31:22.274Z,53.09
2023-04-20T11:32:22.426Z,54.11
2023-04-20T11:33:22.370Z,53.80
2023-04-20T11:34:22.259Z,54.85
2023-04-20T11:35:22.187Z,54.33
2023-04-20T11:36:22.199Z,54.11
2023-04-20T11:37:22.245Z,52.53
2023-04-20T11:38:22.251Z,52.58
2023-04-20T11:39:22.223Z,55.07
2023-04-20T11:40:22.180Z,55.07
2023-04-20T11:41:22.262Z,55.91
2023-04-20T11:42:22.305Z,56.52
2023-04-20T11:43:22.178Z,56.35
2023-04-20T11:44:22.183Z,55.79
2023-04-20T11:45:23.260Z,56.12
2023-04-20T11:46:22.207Z,55.79
2023-04-20T11:47:22.169Z,54.54
2023-04-20T11:48:22.130Z,54.64
2023-04-20T11:49:22.178Z,54.72
2023-04-20T11:50:22.117Z,54.92
2023-04-20T11:51:22.094Z,54.31
2023-04-20T11:52:22.111Z,54.05
2023-04-20T11:53:22.093Z,53.12
2023-04-20T11:54:22.141Z,53.17
2023-04-20T11:55:22.122Z,52.48
2023-04-20T11:56:22.073Z,50.23
2023-04-20T11:57:22.085Z,50.56
2023-04-20T11:58:22.090Z,51.37
2023-04-20T11:59:22.075Z,52.48
2023-04-20T12:00:22.048Z,52.89
2023-04-20T12:01:22.044Z,52.40
2023-04-20T12:02:22.153Z,53.19
2023-04-20T12:03:22.378Z,52.71
2023-04-20T12:04:22.322Z,53.39
2023-04-20T12:05:22.111Z,54.28
2023-04-20T12:06:22.125Z,55.40
2023-04-20T12:07:22.820Z,54.72
2023-04-20T12:08:21.995Z,53.93
2023-04-20T12:09:22.042Z,52.98
2023-04-20T12:10:22.020Z,53.93
2023-04-20T12:11:21.998Z,52.40
2023-04-20T12:12:21.986Z,52.18
2023-04-20T12:13:21.967Z,52.38
2023-04-20T12:14:21.984Z,52.91
2023-04-20T12:15:21.966Z,51.95
2023-04-20T12:16:22.019Z,51.70
2023-04-20T12:17:21.996Z,53.12
2023-04-20T12:18:22.001Z,53.47
2023-04-20T12:19:21.949Z,53.39
2023-04-20T12:20:21.926Z,52.98
2023-04-20T12:21:21.971Z,50.84
2023-04-20T12:22:22.022Z,51.75
2023-04-20T12:23:21.938Z,52.94
2023-04-20T12:24:21.904Z,48.99
2023-04-20T12:25:21.934Z,47.89
2023-04-20T12:26:27.016Z,45.06
2023-04-20T12:27:49.992Z,44.23
2023-04-20T12:30:20.781Z,43.97
2023-04-20T12:31:54.216Z,42.82
2023-04-20T12:32:21.770Z,43.04
2023-04-20T12:33:55.148Z,42.76
2023-04-20T12:37:47.413Z,47.08
2023-04-20T12:38:48.567Z,45.18
2023-04-20T12:39:48.532Z,46.24
2023-04-20T12:40:48.538Z,47.82
2023-04-20T12:42:21.536Z,48.13
2023-04-20T12:42:48.491Z,48.43
2023-04-20T12:43:48.545Z,48.43
2023-04-20T12:44:48.504Z,50.20
2023-04-20T12:45:48.549Z,49.84
2023-04-20T12:46:48.564Z,51.87
2023-04-20T12:47:48.446Z,51.67
2023-04-20T12:48:48.478Z,52.51
2023-04-20T12:49:48.455Z,52.63
2023-04-20T12:50:48.445Z,53.47
2023-04-20T12:51:48.511Z,51.54
2023-04-20T12:52:48.420Z,52.45
2023-04-20T12:53:48.414Z,52.84
2023-04-20T12:54:48.486Z,52.63
2023-04-20T12:55:53.119Z,52.43
2023-04-20T12:56:49.431Z,52.96
2023-04-20T12:57:48.449Z,53.09
2023-04-20T12:58:48.389Z,52.89
2023-04-20T12:59:48.408Z,53.19
2023-04-20T13:00:48.418Z,52.89
2023-04-20T13:01:48.422Z,52.56
2023-04-20T13:02:48.466Z,52.45
2023-04-20T13:03:48.525Z,53.06
2023-04-20T13:04:48.367Z,54.00
2023-04-20T13:05:48.363Z,54.28
2023-04-20T13:06:48.372Z,53.78
2023-04-20T13:07:48.342Z,54.00
2023-04-20T13:08:48.328Z,53.85
2023-04-20T13:09:48.320Z,54.03
2023-04-20T13:10:48.294Z,54.54
2023-04-20T13:11:48.310Z,52.84
2023-04-20T13:12:48.279Z,53.45
2023-04-20T13:13:48.283Z,54.21
2023-04-20T13:14:48.278Z,54.72
2023-04-20T13:15:48.303Z,53.90
2023-04-20T13:16:48.407Z,54.33
2023-04-20T13:17:48.289Z,55.05